Last 7 Days

Williams 2 (WL2)

Hourly Data | America/Los_Angeles
as of 12/9/18 1:16 PM PST
Date Time Temp (°F) RH (%) Dew Pt (°F) Wind Spd (mph) Wind Dir (°) Wind Gust (mph) Wind Gst Dir (°) Latest Rain (In) Solar Rad Tot Hr (Cal/cm2) Daily Rain (In) Daily Min Temp (°F) Daily Max Temp (°F) Day
12/9/18 1200 45.0 94 43.4 0.1 W | 264 2.1 WSW | 248 0.00 6 0.00 36.8 46.1 12/9/18
12/9/18 1100 43.1 96 42.0 0.1 WNW | 282 2.6 W | 259 0.00 5 0.00 36.8 43.9 12/9/18
12/9/18 1000 40.9 97 40.0 2.6 NNW | 331 6.4 NNW | 331 0.00 4 0.00 36.8 42.2 12/9/18
12/9/18 0900 39.5 97 38.6 2.8 NNW | 328 5.4 NNW | 338 0.00 1 0.00 36.8 42.2 12/9/18
12/9/18 0800 39.0 97 38.2 1.0 NNW | 330 4.9 NNW | 334 0.00 0 0.00 36.8 42.2 12/9/18
12/9/18 0700 39.1 96 38.2 1.2 NNW | 342 5.1 NNW | 347 0.00 0 0.00 36.8 42.2 12/9/18
12/9/18 0600 39.1 96 38.2 0.0 N | 0 0.0 NNW | 337 0.00 0 0.00 36.8 42.2 12/9/18
12/9/18 0500 38.7 96 37.7 0.3 NNW | 342 2.9 NW | 326 0.00 0 0.00 36.8 42.2 12/9/18
12/9/18 0400 37.5 95 36.3 0.0 N | 0 0.0 S | 183 0.00 0 0.00 36.8 42.2 12/9/18
12/9/18 0300 37.6 93 35.9 0.0 WSW | 250 3.1 WNW | 282 0.00 0 0.00 36.8 42.2 12/9/18
12/9/18 0200 39.8 92 37.7 4.7 NNW | 343 9.1 NNW | 347 0.00 0 0.00 39.2 42.2 12/9/18
12/9/18 0100 41.1 90 38.5 5.9 NNW | 339 9.5 NNW | 335 0.00 0 0.00 39.6 42.2 12/9/18
12/9/18 0000 41.5 91 39.0 6.0 NNW | 344 10.0 N | 349 0.00 0 0.00 38.8 62.2 12/8/18
12/8/18 2300 41.7 91 39.3 5.3 NNW | 336 10.0 NNW | 343 0.00 0 0.00 38.8 62.2 12/8/18
12/8/18 2200 40.6 92 38.6 0.7 NNW | 341 6.8 NNW | 346 0.00 0 0.00 38.8 62.2 12/8/18
12/8/18 2100 42.0 90 39.2 0.1 SSE | 161 2.4 S | 170 0.00 0 0.00 38.8 62.2 12/8/18
12/8/18 2000 45.0 86 40.9 0.2 ENE | 64 2.4 ENE | 65 0.00 0 0.00 38.8 62.2 12/8/18
12/8/18 1900 49.7 76 42.5 1.1 ESE | 113 4.3 SE | 129 0.00 0 0.00 38.8 62.2 12/8/18
12/8/18 1800 56.2 63 43.9 2.1 S | 182 5.1 S | 172 0.00 2 0.00 38.8 62.2 12/8/18
12/8/18 1700 60.7 54 43.9 2.2 SE | 128 5.1 SE | 144 0.00 15 0.00 38.8 62.2 12/8/18
12/8/18 1600 60.3 55 44.1 3.9 SE | 141 9.3 SE | 124 0.00 27 0.00 38.8 61.2 12/8/18
12/8/18 1500 59.2 56 43.6 5.3 ESE | 123 9.1 ESE | 112 0.00 36 0.00 38.8 59.8 12/8/18
12/8/18 1400 58.0 60 44.0 2.4 S | 175 7.3 SSE | 147 0.00 39 0.00 38.8 59.2 12/8/18
12/8/18 1300 55.0 67 44.2 2.3 S | 180 5.8 SSW | 201 0.00 41 0.00 38.8 57.6 12/8/18
12/8/18 1200 51.0 76 43.7 2.5 SSW | 192 4.9 SSW | 192 0.00 36 0.00 38.8 53.4 12/8/18
12/8/18 1100 48.2 79 42.0 0.5 S | 182 2.7 S | 177 0.00 27 0.00 38.8 51.0 12/8/18
12/8/18 1000 43.3 87 39.7 1.5 N | 355 5.4 N | 6 0.00 14 0.00 38.8 45.6 12/8/18
12/8/18 0900 40.6 91 38.1 2.8 N | 4 7.6 N | 0 0.00 2 0.00 38.8 43.1 12/8/18
12/8/18 0800 40.8 91 38.4 5.3 N | 353 9.3 N | 350 0.00 0 0.00 38.8 43.1 12/8/18
12/8/18 0700 40.4 92 38.2 5.7 NNW | 344 9.1 NNW | 340 0.00 0 0.00 38.8 43.1 12/8/18
12/8/18 0600 39.9 92 37.8 2.2 N | 350 9.0 NNW | 341 0.00 0 0.00 38.8 43.1 12/8/18
12/8/18 0500 40.0 92 37.8 2.9 NNW | 343 8.8 NNW | 346 0.00 0 0.00 38.9 43.1 12/8/18
12/8/18 0400 41.0 91 38.5 3.6 NNW | 346 7.6 N | 350 0.00 0 0.00 40.1 43.1 12/8/18
12/8/18 0300 41.2 90 38.4 4.3 NNW | 348 9.6 NNW | 344 0.00 0 0.00 40.1 43.1 12/8/18
12/8/18 0200 42.3 89 39.2 4.4 N | 350 8.8 N | 353 0.00 0 0.00 40.8 43.1 12/8/18
12/8/18 0100 42.2 88 39.0 5.5 NNW | 341 10.5 N | 349 0.00 0 0.00 40.8 43.1 12/8/18
12/8/18 0000 43.3 87 39.7 5.2 NNW | 345 9.5 N | 350 0.00 0 0.00 39.6 61.8 12/7/18
12/7/18 2300 43.5 87 39.9 5.3 NNW | 342 8.8 N | 352 0.00 0 0.00 39.6 61.8 12/7/18
12/7/18 2200 43.3 88 39.9 4.7 NNW | 339 8.1 NNW | 336 0.00 0 0.00 39.6 61.8 12/7/18
12/7/18 2100 44.0 87 40.5 3.4 NNW | 339 6.1 NNW | 341 0.00 0 0.00 39.6 61.8 12/7/18
12/7/18 2000 45.7 84 41.3 3.0 NNW | 348 7.8 NNW | 345 0.00 0 0.00 39.6 61.8 12/7/18
12/7/18 1900 48.2 82 42.8 1.0 N | 351 4.9 NNW | 344 0.00 0 0.00 39.6 61.8 12/7/18
12/7/18 1800 55.4 67 44.2 0.7 SSW | 198 4.1 SSW | 193 0.00 2 0.00 39.6 61.8 12/7/18
12/7/18 1700 60.8 51 42.8 2.8 S | 183 6.3 SW | 216 0.00 16 0.00 39.6 61.8 12/7/18
12/7/18 1600 60.7 51 42.7 3.9 SSW | 204 7.8 SW | 224 0.00 27 0.00 39.6 61.8 12/7/18
12/7/18 1500 59.2 55 43.3 4.4 SW | 220 8.1 SW | 226 0.00 37 0.00 39.6 60.7 12/7/18
12/7/18 1400 56.7 63 44.2 3.6 S | 190 7.4 SSW | 210 0.00 41 0.00 39.6 58.6 12/7/18
12/7/18 1300 54.1 67 43.6 2.3 SSW | 194 6.8 S | 176 0.00 42 0.00 39.6 56.2 12/7/18
12/7/18 1200 50.3 74 42.3 2.0 S | 175 4.3 SSE | 159 0.00 31 0.00 39.6 51.8 12/7/18
12/7/18 1100 47.3 78 40.8 0.6 SSE | 168 2.9 WSW | 247 0.00 25 0.00 39.6 49.8 12/7/18
12/7/18 1000 42.9 85 38.8 0.9 NW | 319 4.4 N | 350 0.00 10 0.00 39.6 45.1 12/7/18
12/7/18 0900 41.2 86 37.4 3.0 N | 351 6.9 NNE | 26 0.00 3 0.00 39.6 45.1 12/7/18
12/7/18 0800 41.8 86 37.9 4.6 N | 350 9.8 NNW | 345 0.00 0 0.00 40.4 45.1 12/7/18
12/7/18 0700 41.7 87 38.0 7.3 NNW | 346 11.1 NNW | 345 0.00 0 0.00 40.4 45.1 12/7/18
12/7/18 0600 41.7 87 38.2 6.8 NNW | 348 10.5 NNW | 330 0.00 0 0.00 40.4 45.1 12/7/18
12/7/18 0500 41.7 87 38.1 6.6 N | 351 10.1 N | 354 0.00 0 0.00 40.4 45.1 12/7/18
12/7/18 0400 42.2 86 38.5 5.4 NNW | 348 9.6 NNW | 344 0.00 0 0.00 40.4 45.1 12/7/18
12/7/18 0300 41.6 87 38.2 4.3 NNW | 338 8.3 E | 88 0.00 0 0.00 40.4 45.1 12/7/18
12/7/18 0200 43.2 85 38.9 4.0 NNW | 334 7.8 N | 349 0.00 0 0.00 41.9 45.1 12/7/18
12/7/18 0100 44.5 83 39.6 4.3 N | 349 7.4 N | 349 0.00 0 0.00 44.0 45.0 12/7/18
12/7/18 0000 44.4 84 39.7 3.6 N | 350 6.6 NNW | 342 0.00 0 0.00 41.6 64.5 12/6/18
12/6/18 2300 44.8 84 40.1 4.2 N | 354 6.8 N | 11 0.00 0 0.00 41.6 64.5 12/6/18
12/6/18 2200 44.7 85 40.5 4.7 NNW | 344 7.8 NW | 308 0.00 0 0.00 41.6 64.5 12/6/18
12/6/18 2100 44.9 86 40.9 1.9 NNW | 348 8.0 N | 0 0.00 0 0.00 41.6 64.5 12/6/18
12/6/18 2000 46.7 82 41.6 1.4 N | 355 5.3 NW | 322 0.00 0 0.00 41.6 64.5 12/6/18
12/6/18 1900 49.7 77 42.8 1.7 N | 349 5.8 NNW | 334 0.00 0 0.00 41.6 64.5 12/6/18
12/6/18 1800 56.9 62 43.7 0.5 W | 259 3.1 WSW | 237 0.00 2 0.00 41.6 64.5 12/6/18
12/6/18 1700 63.2 46 42.0 2.7 SSW | 205 6.1 SSW | 202 0.00 15 0.00 41.6 64.5 12/6/18
12/6/18 1600 63.6 45 41.6 2.5 SW | 225 6.6 SSW | 204 0.00 27 0.00 41.6 64.5 12/6/18
12/6/18 1500 62.3 46 41.4 2.2 WNW | 291 6.8 NW | 323 0.00 36 0.00 41.6 63.3 12/6/18
12/6/18 1400 60.6 48 40.8 2.6 WSW | 252 6.8 W | 273 0.00 41 0.00 41.6 62.0 12/6/18
12/6/18 1300 58.8 50 40.3 3.1 NW | 320 6.8 NNW | 337 0.00 41 0.00 41.6 60.1 12/6/18
12/6/18 1200 56.8 51 38.9 3.5 NW | 316 8.1 NW | 317 0.00 36 0.00 41.6 58.0 12/6/18
12/6/18 1100 54.6 54 38.6 5.1 NW | 325 10.6 NNW | 328 0.00 27 0.00 41.6 56.2 12/6/18
12/6/18 1000 51.2 60 38.0 5.6 NNW | 348 8.8 N | 350 0.00 15 0.00 41.6 53.3 12/6/18
12/6/18 0900 43.1 89 39.9 0.8 NNW | 342 7.4 NNW | 329 0.00 2 0.00 41.6 50.6 12/6/18
12/6/18 0800 43.3 88 40.1 0.2 ENE | 58 2.1 NE | 56 0.00 0 0.00 42.1 50.6 12/6/18
12/6/18 0700 43.4 89 40.4 0.7 NNW | 346 4.3 NW | 308 0.00 0 0.00 42.7 50.6 12/6/18
12/6/18 0600 43.6 90 40.9 0.5 N | 355 3.3 NNW | 335 0.00 0 0.00 42.9 50.6 12/6/18
12/6/18 0500 43.4 90 40.6 0.0 WSW | 249 0.9 SW | 220 0.00 0 0.00 42.9 50.6 12/6/18
12/6/18 0400 45.1 85 40.8 0.7 NE | 47 3.1 ESE | 123 0.00 0 0.00 43.5 50.6 12/6/18
12/6/18 0300 48.3 76 40.9 1.5 NW | 308 6.4 NNW | 345 0.00 0 0.00 45.7 50.6 12/6/18
12/6/18 0200 50.0 70 40.5 5.0 NNW | 339 10.5 WNW | 286 0.00 0 0.00 48.0 50.6 12/6/18
12/6/18 0100 48.9 73 40.7 5.0 NNW | 334 10.6 NNW | 330 0.00 0 0.00 48.0 49.7 12/6/18
12/6/18 0000 46.8 81 41.2 2.6 NNW | 329 6.8 NNW | 340 0.00 0 0.22 45.6 54.8 12/5/18
12/5/18 2300 46.3 82 41.0 3.4 NNW | 333 7.3 NNW | 336 0.00 0 0.22 45.6 54.8 12/5/18
12/5/18 2200 46.5 82 41.4 2.9 NW | 326 5.9 NNW | 344 0.00 0 0.22 46.0 54.8 12/5/18
12/5/18 2100 47.2 82 42.0 4.3 NNW | 335 8.3 NNW | 338 0.00 0 0.22 46.2 54.8 12/5/18
12/5/18 2000 48.6 80 42.6 4.4 NNW | 333 9.8 NW | 326 0.00 0 0.22 46.2 54.8 12/5/18
12/5/18 1900 49.7 77 42.9 3.0 NNW | 332 5.8 N | 8 0.00 0 0.22 46.2 54.8 12/5/18
12/5/18 1800 51.6 75 43.9 3.5 NNW | 334 6.8 NNW | 338 0.00 1 0.22 46.2 54.8 12/5/18
12/5/18 1700 53.5 72 44.7 3.5 NNW | 329 6.8 NNW | 334 0.00 6 0.22 46.2 54.8 12/5/18
12/5/18 1600 53.5 73 45.2 4.7 NNW | 333 9.3 NNW | 327 0.00 13 0.22 46.2 54.8 12/5/18
12/5/18 1500 54.0 70 44.3 4.7 N | 354 10.1 NNW | 342 0.00 12 0.22 46.2 54.8 12/5/18
12/5/18 1400 54.1 72 45.4 4.3 NNW | 338 8.6 NNW | 327 0.00 23 0.22 46.2 54.8 12/5/18
12/5/18 1300 52.0 80 46.1 4.4 NNW | 339 7.4 NNW | 338 0.00 21 0.22 46.2 53.5 12/5/18
12/5/18 1200 50.0 84 45.2 4.8 NNW | 343 8.3 N | 353 0.01 9 0.22 46.2 53.4 12/5/18
12/5/18 1100 49.8 81 44.2 4.9 NNW | 342 8.6 NNW | 333 0.01 6 0.21 46.2 53.4 12/5/18
12/5/18 1000 49.2 81 43.6 4.0 NNW | 338 9.3 NW | 326 0.00 5 0.20 46.2 53.4 12/5/18
12/5/18 0900 47.9 85 43.6 4.4 NNW | 342 9.8 NNW | 340 0.01 1 0.20 46.2 53.4 12/5/18
12/5/18 0800 48.3 82 43.2 3.1 NNW | 335 9.8 NNW | 336 0.00 0 0.19 46.2 53.4 12/5/18
12/5/18 0700 48.1 83 43.3 2.6 NNW | 342 9.0 NNW | 348 0.01 0 0.19 46.2 53.4 12/5/18
12/5/18 0600 46.4 90 43.7 3.6 NNW | 331 8.3 NNW | 332 0.00 0 0.18 46.2 53.4 12/5/18
12/5/18 0500 46.6 89 43.7 3.7 NNW | 345 7.8 NNW | 330 0.04 0 0.18 46.2 53.4 12/5/18
12/5/18 0400 47.3 87 43.6 2.9 NNW | 329 5.8 NNW | 327 0.08 0 0.14 46.3 53.4 12/5/18
12/5/18 0300 50.5 71 41.5 5.4 SE | 137 13.5 ESE | 113 0.06 0 0.06 48.4 53.4 12/5/18
12/5/18 0200 52.1 56 36.7 4.5 SE | 139 13.0 ESE | 106 0.00 0 0.00 49.4 53.4 12/5/18
12/5/18 0100 50.9 58 36.6 2.8 N | 1 6.4 SSW | 209 0.00 0 0.00 49.4 53.0 12/5/18
12/5/18 0000 50.8 59 36.8 1.9 N | 353 5.4 NNE | 16 0.00 0 0.00 48.0 55.1 12/4/18
12/4/18 2300 51.7 54 35.7 5.3 NNW | 345 11.6 N | 350 0.00 0 0.00 48.0 55.1 12/4/18
12/4/18 2200 49.4 65 38.3 4.4 NNW | 341 8.6 NW | 315 0.00 0 0.00 48.0 55.1 12/4/18
12/4/18 2100 49.6 66 38.5 2.4 N | 350 6.1 NNW | 330 0.00 0 0.00 48.0 55.1 12/4/18
12/4/18 2000 49.0 69 39.1 2.9 N | 351 6.6 NNW | 346 0.00 0 0.00 48.0 55.1 12/4/18
12/4/18 1900 49.4 70 40.1 1.7 NNW | 337 6.3 NNW | 340 0.00 0 0.00 48.0 55.1 12/4/18
12/4/18 1800 52.1 60 38.8 2.0 NNE | 27 4.8 SSE | 154 0.00 1 0.00 48.0 55.1 12/4/18
12/4/18 1700 53.0 60 39.4 1.8 S | 175 5.9 SSE | 161 0.00 4 0.00 48.0 55.1 12/4/18
12/4/18 1600 54.0 52 36.8 2.9 NNE | 12 7.3 NNW | 335 0.00 5 0.00 48.0 55.1 12/4/18
12/4/18 1500 54.4 49 35.8 2.4 E | 101 9.1 NNE | 27 0.00 12 0.00 48.0 55.1 12/4/18
12/4/18 1400 54.6 50 36.5 2.4 SE | 134 7.8 SE | 135 0.00 11 0.00 48.0 55.1 12/4/18
12/4/18 1300 54.5 51 36.8 3.3 ESE | 118 7.8 NNW | 332 0.00 14 0.00 48.0 55.1 12/4/18
12/4/18 1200 52.6 59 38.6 1.5 WSW | 250 8.3 SE | 145 0.00 10 0.00 48.0 54.2 12/4/18
12/4/18 1100 50.3 61 37.4 2.0 NNW | 329 5.8 N | 7 0.00 6 0.00 48.0 52.8 12/4/18
12/4/18 1000 50.2 58 35.8 1.7 NNW | 331 5.1 NNE | 16 0.00 4 0.00 48.0 52.8 12/4/18
12/4/18 0900 51.6 47 31.8 1.9 NNE | 25 7.4 NW | 324 0.00 1 0.00 48.0 52.8 12/4/18
12/4/18 0800 50.8 48 31.8 2.4 NNE | 28 7.3 NE | 38 0.00 0 0.00 48.0 52.8 12/4/18
12/4/18 0700 51.1 47 31.4 2.3 E | 85 7.6 E | 88 0.00 0 0.00 48.0 52.8 12/4/18
12/4/18 0600 49.9 52 32.8 3.5 NNW | 346 10.1 NNE | 12 0.00 0 0.00 48.0 52.8 12/4/18
12/4/18 0500 50.5 48 31.2 3.7 N | 350 9.6 N | 1 0.00 0 0.00 48.7 52.4 12/4/18
12/4/18 0400 51.6 41 28.7 4.9 N | 1 12.6 N | 351 0.00 0 0.00 49.3 52.4 12/4/18
12/4/18 0300 51.4 40 28.2 4.5 N | 2 9.5 NNE | 12 0.00 0 0.00 49.3 52.4 12/4/18
12/4/18 0200 51.2 41 28.1 3.8 N | 5 10.5 NNE | 15 0.00 0 0.00 49.3 52.3 12/4/18
12/4/18 0100 50.5 45 29.8 4.8 N | 358 10.3 NNW | 332 0.00 0 0.00 49.3 51.2 12/4/18
12/4/18 0000 48.6 54 32.6 2.8 N | 351 7.3 N | 6 0.00 0 0.00 33.8 55.8 12/3/18
12/3/18 2300 45.2 76 38.0 1.1 NNW | 331 4.3 NW | 324 0.00 0 0.00 33.8 55.8 12/3/18
12/3/18 2200 45.2 76 38.1 1.6 NNW | 338 5.1 NW | 315 0.00 0 0.00 33.8 55.8 12/3/18
12/3/18 2100 45.7 74 37.8 0.9 NNW | 334 2.9 NW | 310 0.00 0 0.00 33.8 55.8 12/3/18
12/3/18 2000 46.0 73 38.0 1.0 NNW | 340 5.4 N | 5 0.00 0 0.00 33.8 55.8 12/3/18
12/3/18 1900 47.7 69 37.9 0.4 ENE | 60 3.4 E | 96 0.00 0 0.00 33.8 55.8 12/3/18
12/3/18 1800 51.1 52 34.0 1.4 E | 79 4.9 E | 90 0.00 1 0.00 33.8 55.8 12/3/18
12/3/18 1700 52.4 49 33.6 2.0 ENE | 71 7.4 E | 90 0.00 7 0.00 33.8 55.8 12/3/18
12/3/18 1600 53.8 48 34.5 3.4 E | 79 9.5 E | 98 0.00 17 0.00 33.8 55.8 12/3/18
12/3/18 1500 54.9 48 35.4 4.5 ESE | 114 10.6 E | 90 0.00 30 0.00 33.8 55.8 12/3/18
12/3/18 1400 54.1 48 35.1 3.6 ESE | 122 7.6 ESE | 116 0.00 34 0.00 33.8 55.2 12/3/18
12/3/18 1300 53.3 48 34.1 2.6 E | 91 7.8 E | 79 0.00 32 0.00 33.8 54.1 12/3/18
12/3/18 1200 50.4 60 36.6 2.6 SW | 225 6.4 S | 186 0.00 38 0.00 33.8 52.7 12/3/18
12/3/18 1100 43.6 79 37.5 0.2 SSW | 195 3.9 SSW | 201 0.00 22 0.00 33.8 46.9 12/3/18
12/3/18 1000 39.4 87 36.0 0.1 SSW | 212 2.2 SSW | 210 0.00 9 0.00 33.8 40.9 12/3/18
12/3/18 0900 37.7 90 35.0 1.2 NNW | 339 5.8 NW | 326 0.00 3 0.00 33.8 40.0 12/3/18
12/3/18 0800 35.4 93 33.5 0.6 N | 355 4.8 NNW | 338 0.00 0 0.00 33.8 40.0 12/3/18
12/3/18 0700 36.4 91 34.0 0.9 NNW | 336 6.1 NNW | 332 0.00 0 0.00 33.8 40.0 12/3/18
12/3/18 0600 35.7 92 33.7 1.1 NNW | 338 6.3 N | 2 0.00 0 0.00 33.8 40.0 12/3/18
12/3/18 0500 34.5 92 32.4 0.9 NNW | 333 6.3 NNW | 338 0.00 0 0.00 33.8 40.0 12/3/18
12/3/18 0400 35.7 90 32.9 3.6 NNW | 342 7.3 N | 0 0.00 0 0.00 34.3 40.0 12/3/18
12/3/18 0300 37.2 88 34.0 6.1 NNW | 345 10.6 N | 352 0.00 0 0.00 36.6 40.0 12/3/18
12/3/18 0200 38.0 88 34.7 5.7 NNW | 348 10.1 NNW | 329 0.00 0 0.00 36.8 40.0 12/3/18
12/3/18 0100 38.8 88 35.7 6.3 NNW | 348 10.6 N | 355 0.00 0 0.00 37.8 40.0 12/3/18
12/3/18 0000 39.6 89 36.6 5.6 NNW | 345 10.0 N | 349 0.00 0 0.00 36.6 57.2 12/2/18
12/2/18 2300 39.2 90 36.6 3.7 NNW | 339 7.1 NW | 324 0.00 0 0.00 36.6 57.2 12/2/18
12/2/18 2200 40.5 89 37.4 3.6 NNW | 343 6.6 NNW | 330 0.00 0 0.00 36.6 57.2 12/2/18
12/2/18 2100 41.1 88 37.8 2.3 NNW | 343 5.8 NNW | 345 0.00 0 0.00 36.6 57.2 12/2/18
12/2/18 2000 42.7 86 38.9 3.2 NNW | 344 5.8 NNW | 341 0.00 0 0.00 36.6 57.2 12/2/18
12/2/18 1900 45.0 83 40.1 0.7 N | 0 3.3 N | 352 0.00 0 0.00 36.6 57.2 12/2/18
12/2/18 1800 51.8 66 40.5 1.1 E | 94 5.3 SE | 131 0.00 2 0.00 36.6 57.2 12/2/18
12/2/18 1700 55.2 56 39.8 2.8 E | 100 7.1 NE | 52 0.00 15 0.00 36.6 57.2 12/2/18
12/2/18 1600 56.3 53 39.6 4.0 SE | 132 9.1 SE | 142 0.00 34 0.00 36.6 57.2 12/2/18
12/2/18 1500 55.7 54 39.4 2.3 SSW | 213 7.4 SW | 223 0.00 40 0.00 36.6 56.8 12/2/18
12/2/18 1400 53.8 61 40.6 2.9 S | 191 6.6 SSW | 206 0.00 44 0.00 36.6 55.6 12/2/18
Tip: Bookmark this page for easy future reference